createdAt,value
2023-05-13T00:01:29.003Z,41.45
2023-05-13T00:03:57.188Z,41.42
2023-05-13T00:06:25.273Z,41.36
2023-05-13T00:08:53.378Z,41.62
2023-05-13T00:11:21.434Z,41.42
2023-05-13T00:13:49.444Z,41.45
2023-05-13T00:16:17.511Z,41.46
2023-05-13T00:18:47.077Z,41.37
2023-05-13T00:21:15.139Z,41.48
2023-05-13T00:23:44.017Z,41.49
2023-05-13T00:26:12.371Z,41.36
2023-05-13T00:28:40.444Z,41.30
2023-05-13T00:31:10.135Z,41.56
2023-05-13T00:33:38.340Z,41.50
2023-05-13T00:36:10.249Z,41.49
2023-05-13T00:38:38.307Z,41.46
2023-05-13T00:41:07.495Z,41.47
2023-05-13T00:43:35.732Z,41.40
2023-05-13T00:46:03.987Z,41.39
2023-05-13T00:48:32.740Z,41.38
2023-05-13T00:51:01.133Z,41.34
2023-05-13T00:53:31.868Z,41.48
2023-05-13T00:55:59.934Z,41.39
2023-05-13T00:58:28.001Z,41.50
2023-05-13T01:01:03.260Z,41.37
2023-05-13T01:03:43.949Z,41.56
2023-05-13T01:06:15.260Z,41.42
2023-05-13T01:08:52.547Z,41.52
2023-05-13T01:11:24.457Z,41.42
2023-05-13T01:13:59.200Z,41.53
2023-05-13T01:16:32.316Z,41.48
2023-05-13T01:19:07.465Z,41.40
2023-05-13T01:21:40.203Z,41.42
2023-05-13T01:24:08.894Z,41.46
2023-05-13T01:26:37.012Z,41.47
2023-05-13T01:29:05.220Z,41.40
2023-05-13T01:31:34.370Z,41.43
2023-05-13T01:34:04.868Z,41.44
2023-05-13T01:36:33.565Z,41.53
2023-05-13T01:39:04.386Z,41.45
2023-05-13T01:41:32.795Z,41.53
2023-05-13T01:44:00.919Z,41.30
2023-05-13T01:46:29.474Z,41.48
2023-05-13T01:48:58.080Z,41.54
2023-05-13T01:51:26.310Z,41.49
2023-05-13T01:53:54.323Z,41.52
2023-05-13T01:56:23.848Z,41.39
2023-05-13T01:58:51.949Z,41.50
2023-05-13T02:01:21.892Z,41.61
2023-05-13T02:03:51.276Z,41.54
2023-05-13T02:06:19.602Z,41.43
2023-05-13T02:08:47.784Z,41.52
2023-05-13T02:11:15.876Z,41.53
2023-05-13T02:13:46.758Z,41.49
2023-05-13T02:16:19.135Z,41.49
2023-05-13T02:18:47.423Z,41.49
2023-05-13T02:21:15.880Z,41.56
2023-05-13T02:23:44.179Z,41.49
2023-05-13T02:26:12.240Z,41.47
2023-05-13T02:28:40.342Z,41.38
2023-05-13T02:31:09.831Z,41.48
2023-05-13T02:33:37.929Z,41.40
2023-05-13T02:36:06.557Z,41.43
2023-05-13T02:38:34.694Z,41.52
2023-05-13T02:41:03.866Z,41.30
2023-05-13T02:43:32.484Z,41.42
2023-05-13T02:46:00.954Z,41.43
2023-05-13T02:48:30.491Z,41.49
2023-05-13T02:50:58.611Z,41.38
2023-05-13T02:53:26.703Z,41.46
2023-05-13T02:55:54.887Z,41.40
2023-05-13T02:58:22.970Z,41.52
2023-05-13T03:00:51.094Z,41.36
2023-05-13T03:03:19.330Z,41.53
2023-05-13T03:05:49.208Z,41.54
2023-05-13T03:08:17.253Z,41.45
2023-05-13T03:10:45.330Z,41.46
2023-05-13T03:13:13.490Z,41.50
2023-05-13T03:15:44.119Z,41.55
2023-05-13T03:18:12.773Z,41.49
2023-05-13T03:20:41.338Z,41.37
2023-05-13T03:23:11.285Z,41.45
2023-05-13T03:25:39.566Z,41.38
2023-05-13T03:28:08.039Z,41.36
2023-05-13T03:30:36.525Z,41.48
2023-05-13T03:33:07.415Z,41.44
2023-05-13T03:35:35.526Z,41.56
2023-05-13T03:38:03.651Z,41.44
2023-05-13T03:40:33.156Z,41.55
2023-05-13T03:43:02.848Z,41.51
2023-05-13T03:45:31.371Z,41.46
2023-05-13T03:47:59.433Z,41.56
2023-05-13T03:50:27.645Z,41.62
2023-05-13T03:52:57.248Z,41.62
2023-05-13T03:55:25.704Z,41.66
2023-05-13T03:57:55.150Z,41.76
2023-05-13T04:00:23.343Z,41.84
2023-05-13T04:02:51.675Z,41.94
2023-05-13T04:05:20.149Z,41.90
2023-05-13T04:07:48.273Z,42.08
2023-05-13T04:10:19.259Z,42.07
2023-05-13T04:12:47.420Z,42.25
2023-05-13T04:15:17.224Z,42.07
2023-05-13T04:17:45.353Z,42.44
2023-05-13T04:20:13.826Z,42.26
2023-05-13T04:22:44.417Z,42.23
2023-05-13T04:25:12.694Z,42.25
2023-05-13T04:27:40.790Z,42.34
2023-05-13T04:30:10.160Z,42.26
2023-05-13T04:32:39.684Z,42.04
2023-05-13T04:35:09.113Z,41.97
2023-05-13T04:37:37.182Z,42.13
2023-05-13T04:40:06.541Z,41.87
2023-05-13T04:42:34.612Z,42.08
2023-05-13T04:45:02.731Z,41.89
2023-05-13T04:47:30.893Z,42.06
2023-05-13T04:50:00.391Z,41.98
2023-05-13T04:52:28.803Z,41.89
2023-05-13T04:54:56.903Z,42.04
2023-05-13T04:57:25.459Z,42.19
2023-05-13T04:59:53.502Z,42.09
2023-05-13T05:02:21.573Z,42.07
2023-05-13T05:04:50.388Z,41.92
2023-05-13T05:07:22.862Z,41.96
2023-05-13T05:09:51.248Z,42.04
2023-05-13T05:12:20.205Z,42.06
2023-05-13T05:14:48.222Z,42.00
2023-05-13T05:17:17.588Z,41.83
2023-05-13T05:19:45.662Z,42.04
2023-05-13T05:22:13.766Z,41.92
2023-05-13T05:24:43.230Z,42.04
2023-05-13T05:27:11.277Z,41.96
2023-05-13T05:29:39.529Z,41.95
2023-05-13T05:32:08.828Z,41.95
2023-05-13T05:34:37.292Z,42.01
2023-05-13T05:37:05.966Z,41.96
2023-05-13T05:39:35.318Z,41.88
2023-05-13T05:42:05.110Z,41.87
2023-05-13T05:44:33.107Z,41.90
2023-05-13T05:47:01.150Z,41.89
2023-05-13T05:49:29.162Z,41.86
2023-05-13T05:51:57.197Z,41.75
2023-05-13T05:54:25.404Z,41.76
2023-05-13T05:56:53.475Z,41.90
2023-05-13T05:59:22.936Z,41.77
2023-05-13T06:01:51.540Z,41.69
2023-05-13T06:04:19.612Z,41.87
2023-05-13T06:06:47.798Z,41.75
2023-05-13T06:09:16.217Z,41.80
2023-05-13T06:11:44.302Z,41.60
2023-05-13T06:14:12.785Z,41.74
2023-05-13T06:16:42.286Z,41.57
2023-05-13T06:19:10.418Z,41.68
2023-05-13T06:21:38.616Z,41.69
2023-05-13T06:24:07.011Z,41.73
2023-05-13T06:26:35.056Z,41.57
2023-05-13T06:29:03.163Z,41.66
2023-05-13T06:31:31.235Z,41.67
2023-05-13T06:34:00.756Z,41.54
2023-05-13T06:36:28.773Z,41.66
2023-05-13T06:38:56.809Z,41.62
2023-05-13T06:41:24.859Z,41.65
2023-05-13T06:43:53.031Z,41.70
2023-05-13T06:46:21.181Z,41.64
2023-05-13T06:48:52.348Z,41.55
2023-05-13T06:51:22.957Z,41.59
2023-05-13T06:53:50.966Z,41.56
2023-05-13T06:56:25.466Z,41.54
2023-05-13T06:58:53.807Z,41.66
2023-05-13T07:01:22.209Z,41.50
2023-05-13T07:03:50.567Z,41.70
2023-05-13T07:06:18.732Z,41.63
2023-05-13T07:08:48.230Z,41.49
2023-05-13T07:11:16.251Z,41.48
2023-05-13T07:13:44.566Z,41.60
2023-05-13T07:16:12.660Z,41.50
2023-05-13T07:18:40.777Z,41.38
2023-05-13T07:21:08.914Z,41.35
2023-05-13T07:23:37.352Z,41.31
2023-05-13T07:26:06.879Z,41.39
2023-05-13T07:28:34.967Z,41.34
2023-05-13T07:31:03.292Z,41.33
2023-05-13T07:33:31.480Z,41.30
2023-05-13T07:35:59.544Z,41.17
2023-05-13T07:38:27.589Z,41.22
2023-05-13T07:40:56.075Z,41.15
2023-05-13T07:43:25.747Z,41.11
2023-05-13T07:45:53.964Z,41.32
2023-05-13T07:48:21.986Z,41.17
2023-05-13T07:50:50.084Z,41.17
2023-05-13T07:53:19.829Z,41.13
2023-05-13T07:55:48.092Z,41.15
2023-05-13T07:58:16.189Z,41.08
2023-05-13T08:00:45.804Z,41.19
2023-05-13T08:03:14.135Z,41.15
2023-05-13T08:05:42.287Z,41.20
2023-05-13T08:08:10.350Z,41.12
2023-05-13T08:10:38.373Z,41.12
2023-05-13T08:13:06.679Z,41.18
2023-05-13T08:15:34.756Z,41.07
2023-05-13T08:18:04.332Z,41.13
2023-05-13T08:20:32.435Z,41.11
2023-05-13T08:23:02.102Z,41.06
2023-05-13T08:25:30.347Z,41.11
2023-05-13T08:27:59.027Z,41.04
2023-05-13T08:30:27.148Z,41.05
2023-05-13T08:32:55.241Z,40.99
2023-05-13T08:35:25.102Z,40.99
2023-05-13T08:37:53.199Z,40.99
2023-05-13T08:40:22.010Z,41.13
2023-05-13T08:42:53.946Z,41.06
2023-05-13T08:45:24.068Z,41.08
2023-05-13T08:47:53.837Z,40.98
2023-05-13T08:50:23.422Z,41.00
2023-05-13T08:52:54.154Z,40.99
2023-05-13T08:55:24.356Z,41.08
2023-05-13T08:57:53.277Z,40.96
2023-05-13T09:00:21.916Z,41.00
2023-05-13T09:02:51.271Z,40.99
2023-05-13T09:05:20.429Z,41.02
2023-05-13T09:07:48.592Z,41.08
2023-05-13T09:10:19.512Z,40.92
2023-05-13T09:12:48.848Z,40.99
2023-05-13T09:15:19.251Z,41.00
2023-05-13T09:17:50.208Z,41.09
2023-05-13T09:20:19.604Z,41.18
2023-05-13T09:22:48.545Z,40.95
2023-05-13T09:25:19.175Z,40.99
2023-05-13T09:27:49.534Z,41.09
2023-05-13T09:30:17.656Z,40.99
2023-05-13T09:32:45.801Z,40.94
2023-05-13T09:35:17.337Z,41.10
2023-05-13T09:37:49.511Z,40.99
2023-05-13T09:40:19.229Z,41.08
2023-05-13T09:42:47.990Z,40.97
2023-05-13T09:45:17.653Z,40.96
2023-05-13T09:47:45.877Z,40.93
2023-05-13T09:50:14.151Z,41.16
2023-05-13T09:52:42.422Z,40.89
2023-05-13T09:55:11.161Z,40.91
2023-05-13T09:57:41.172Z,40.86
2023-05-13T10:00:17.978Z,40.95
2023-05-13T10:02:53.549Z,41.07
2023-05-13T10:05:22.647Z,40.92
2023-05-13T10:07:51.786Z,41.03
2023-05-13T10:10:21.450Z,41.09
2023-05-13T10:12:52.806Z,40.99
2023-05-13T10:15:21.341Z,40.97
2023-05-13T10:17:49.843Z,41.11
2023-05-13T10:20:18.353Z,40.94
2023-05-13T10:22:47.059Z,40.99
2023-05-13T10:25:15.147Z,41.02
2023-05-13T10:27:44.604Z,40.96
2023-05-13T10:30:16.259Z,41.03
2023-05-13T10:32:44.507Z,40.92
2023-05-13T10:35:15.696Z,40.95
2023-05-13T10:38:03.162Z,40.89
2023-05-13T10:40:51.976Z,41.04
2023-05-13T10:43:22.133Z,40.87
2023-05-13T10:45:53.525Z,40.95
2023-05-13T10:48:21.692Z,41.00
2023-05-13T10:50:54.556Z,41.00
2023-05-13T10:53:25.493Z,41.15
2023-05-13T10:55:58.140Z,40.96
2023-05-13T10:58:33.395Z,40.95
2023-05-13T11:01:17.281Z,40.84
2023-05-13T11:03:56.401Z,40.90
2023-05-13T11:06:27.336Z,40.97
2023-05-13T11:08:56.315Z,41.04
2023-05-13T11:11:34.138Z,40.81
2023-05-13T11:14:09.922Z,40.95
2023-05-13T11:16:39.610Z,40.92
2023-05-13T11:19:20.241Z,40.83
2023-05-13T11:21:51.283Z,40.91
2023-05-13T11:24:20.549Z,40.81
2023-05-13T11:26:50.824Z,40.93
2023-05-13T11:29:30.669Z,40.74
2023-05-13T11:32:01.257Z,40.95
2023-05-13T11:34:30.247Z,40.97
2023-05-13T11:37:07.789Z,40.88
2023-05-13T11:39:36.342Z,40.89
2023-05-13T11:42:08.730Z,40.93
2023-05-13T11:44:37.305Z,40.82
2023-05-13T11:47:08.254Z,40.93
2023-05-13T11:49:41.272Z,40.94
2023-05-13T11:52:11.455Z,40.85
2023-05-13T11:54:49.182Z,40.95
2023-05-13T11:57:21.374Z,40.93
2023-05-13T11:59:53.897Z,40.79
2023-05-13T12:02:27.280Z,40.77
2023-05-13T12:04:55.701Z,40.89
2023-05-13T12:07:24.916Z,40.85
2023-05-13T12:09:54.572Z,40.88
2023-05-13T12:12:23.192Z,40.88
2023-05-13T12:14:53.081Z,40.94
2023-05-13T12:17:25.066Z,40.82
2023-05-13T12:20:14.158Z,40.77
2023-05-13T12:22:57.690Z,40.75
2023-05-13T12:25:43.085Z,40.79
2023-05-13T12:28:13.419Z,40.81
2023-05-13T12:30:44.215Z,40.82
2023-05-13T12:33:17.879Z,40.86
2023-05-13T12:35:48.419Z,40.91
2023-05-13T12:38:18.586Z,40.73
2023-05-13T12:40:47.977Z,40.81
2023-05-13T12:43:18.354Z,40.82
2023-05-13T12:45:47.837Z,40.78
2023-05-13T12:48:17.308Z,40.89
2023-05-13T12:50:45.360Z,40.81
2023-05-13T12:53:13.586Z,40.76
2023-05-13T12:55:41.657Z,40.90
2023-05-13T12:58:12.362Z,40.64
2023-05-13T13:00:40.467Z,40.66
2023-05-13T13:03:08.929Z,40.71
2023-05-13T13:05:38.524Z,40.67
2023-05-13T13:08:07.003Z,40.96
2023-05-13T13:10:35.105Z,40.87
2023-05-13T13:13:03.131Z,40.80
2023-05-13T13:15:31.697Z,40.75
2023-05-13T13:17:59.821Z,40.86
2023-05-13T13:20:27.958Z,40.77
2023-05-13T13:22:57.552Z,40.83
2023-05-13T13:25:25.562Z,40.89
2023-05-13T13:27:53.674Z,40.78
2023-05-13T13:30:21.745Z,40.69
2023-05-13T13:32:49.895Z,40.76
2023-05-13T13:35:18.191Z,40.62
2023-05-13T13:37:46.281Z,40.81
2023-05-13T13:40:16.659Z,40.77
2023-05-13T13:42:45.287Z,40.79
2023-05-13T13:45:13.958Z,40.95
2023-05-13T13:47:42.264Z,40.95
2023-05-13T13:50:11.626Z,40.64
2023-05-13T13:52:39.709Z,40.68
2023-05-13T13:55:08.839Z,40.75
2023-05-13T13:57:38.334Z,40.63
2023-05-13T14:00:07.965Z,40.70
2023-05-13T14:02:36.337Z,40.73
2023-05-13T14:05:04.581Z,40.77
2023-05-13T14:07:32.655Z,40.77
2023-05-13T14:10:01.611Z,40.79
2023-05-13T14:12:29.829Z,40.63
2023-05-13T14:15:00.611Z,40.66
2023-05-13T14:17:28.833Z,40.83
2023-05-13T14:19:57.075Z,40.68
2023-05-13T14:22:25.518Z,40.69
2023-05-13T14:24:54.271Z,40.71
2023-05-13T14:27:24.701Z,40.69
2023-05-13T14:29:53.103Z,40.75
2023-05-13T14:32:22.576Z,40.78
2023-05-13T14:34:50.919Z,40.80
2023-05-13T14:37:19.079Z,40.78
2023-05-13T14:39:49.260Z,40.63
2023-05-13T14:42:18.484Z,40.77
2023-05-13T14:44:46.745Z,40.82
2023-05-13T14:47:14.833Z,40.69
2023-05-13T14:49:44.261Z,40.74
2023-05-13T14:52:12.308Z,40.64
2023-05-13T14:54:40.346Z,40.69
2023-05-13T14:57:08.758Z,40.67
2023-05-13T14:59:37.072Z,40.76
2023-05-13T15:02:05.534Z,40.72
2023-05-13T15:04:33.601Z,40.81
2023-05-13T15:07:05.635Z,40.73
2023-05-13T15:09:34.036Z,40.89
2023-05-13T15:12:04.011Z,40.60
2023-05-13T15:14:32.073Z,40.82
2023-05-13T15:17:00.439Z,40.85
2023-05-13T15:19:30.991Z,40.62
2023-05-13T15:21:59.112Z,40.74
2023-05-13T15:24:28.586Z,40.58
2023-05-13T15:26:56.618Z,40.88
2023-05-13T15:29:24.665Z,40.83
2023-05-13T15:31:52.777Z,40.59
2023-05-13T15:34:20.871Z,40.78
2023-05-13T15:36:49.115Z,40.67
2023-05-13T15:39:17.691Z,40.87
2023-05-13T15:41:47.277Z,40.80
2023-05-13T15:44:15.394Z,40.75
2023-05-13T15:46:43.633Z,40.88
2023-05-13T15:49:11.830Z,40.78
2023-05-13T15:51:39.928Z,40.79
2023-05-13T15:54:08.212Z,40.72
2023-05-13T15:56:36.265Z,40.77
2023-05-13T15:59:05.872Z,40.78
2023-05-13T16:01:34.022Z,40.81
2023-05-13T16:04:02.084Z,40.68
2023-05-13T16:06:30.198Z,40.80
2023-05-13T16:08:58.225Z,40.83
2023-05-13T16:11:26.765Z,40.77
2023-05-13T16:13:54.819Z,40.79
2023-05-13T16:16:24.802Z,40.81
2023-05-13T16:18:53.036Z,40.87
2023-05-13T16:21:24.527Z,40.62
2023-05-13T16:23:52.633Z,40.71
2023-05-13T16:26:21.529Z,40.83
2023-05-13T16:28:49.619Z,40.82
2023-05-13T16:31:17.644Z,40.70
2023-05-13T16:33:47.075Z,40.79
2023-05-13T16:36:15.179Z,40.82
2023-05-13T16:38:43.315Z,40.76
2023-05-13T16:41:12.164Z,40.62
2023-05-13T16:43:40.274Z,40.74
2023-05-13T16:46:08.351Z,40.82
2023-05-13T16:48:36.920Z,40.84
2023-05-13T16:51:06.689Z,40.98
2023-05-13T16:53:35.064Z,40.78
2023-05-13T16:56:03.276Z,40.85
2023-05-13T16:58:31.309Z,40.75
2023-05-13T17:00:59.767Z,40.87
2023-05-13T17:03:28.378Z,40.92
2023-05-13T17:05:56.550Z,40.90
2023-05-13T17:08:26.009Z,40.81
2023-05-13T17:10:54.328Z,40.86
2023-05-13T17:13:22.891Z,40.79
2023-05-13T17:15:51.219Z,40.83
2023-05-13T17:18:19.220Z,40.81
2023-05-13T17:20:47.294Z,40.73
2023-05-13T17:23:17.343Z,40.75
2023-05-13T17:25:48.586Z,40.87
2023-05-13T17:28:16.671Z,40.73
2023-05-13T17:30:44.806Z,40.85
2023-05-13T17:33:13.014Z,40.72
2023-05-13T17:35:41.236Z,40.76
2023-05-13T17:38:09.323Z,40.76
2023-05-13T17:40:37.604Z,40.83
2023-05-13T17:43:07.158Z,40.84
2023-05-13T17:45:35.936Z,40.74
2023-05-13T17:48:04.716Z,40.81
2023-05-13T17:50:33.369Z,40.81
2023-05-13T17:53:01.783Z,40.66
2023-05-13T17:55:30.001Z,40.86
2023-05-13T17:57:59.878Z,40.86
2023-05-13T18:00:29.603Z,40.88
2023-05-13T18:02:57.666Z,40.94
2023-05-13T18:05:25.854Z,40.91
2023-05-13T18:07:54.148Z,40.75
2023-05-13T18:10:22.491Z,40.81
2023-05-13T18:12:51.825Z,40.75
2023-05-13T18:15:20.129Z,40.79
2023-05-13T18:17:49.890Z,40.79
2023-05-13T18:20:18.061Z,40.88
2023-05-13T18:22:46.261Z,40.91
2023-05-13T18:25:14.410Z,40.77
2023-05-13T18:27:42.504Z,40.82
2023-05-13T18:30:17.494Z,40.90
2023-05-13T18:32:45.861Z,40.63
2023-05-13T18:35:16.380Z,40.90
2023-05-13T18:37:44.507Z,40.91
2023-05-13T18:40:13.687Z,41.00
2023-05-13T18:42:41.747Z,40.96
2023-05-13T18:45:11.154Z,40.91
2023-05-13T18:47:40.292Z,40.89
2023-05-13T18:50:08.931Z,40.99
2023-05-13T18:52:40.271Z,41.08
2023-05-13T18:55:12.563Z,41.15
2023-05-13T18:57:40.779Z,41.11
2023-05-13T19:00:09.856Z,41.04
2023-05-13T19:02:38.190Z,40.98
2023-05-13T19:05:07.392Z,41.09
2023-05-13T19:07:35.489Z,40.97
2023-05-13T19:10:05.440Z,41.19
2023-05-13T19:12:33.574Z,41.36
2023-05-13T19:15:01.766Z,41.25
2023-05-13T19:17:29.946Z,41.36
2023-05-13T19:20:00.633Z,41.45
2023-05-13T19:22:28.762Z,41.45
2023-05-13T19:24:56.828Z,41.59
2023-05-13T19:27:26.343Z,41.48
2023-05-13T19:29:54.389Z,41.50
2023-05-13T19:32:22.506Z,41.57
2023-05-13T19:34:50.531Z,41.49
2023-05-13T19:37:18.679Z,41.65
2023-05-13T19:39:46.798Z,41.50
2023-05-13T19:42:16.288Z,41.60
2023-05-13T19:44:46.224Z,41.56
2023-05-13T19:47:14.756Z,41.57
2023-05-13T19:49:43.565Z,41.60
2023-05-13T19:52:16.952Z,41.58
2023-05-13T19:54:45.289Z,41.56
2023-05-13T19:57:13.428Z,41.66
2023-05-13T19:59:41.876Z,41.54
2023-05-13T20:02:11.573Z,41.50
2023-05-13T20:04:39.721Z,41.47
2023-05-13T20:07:09.262Z,41.50
2023-05-13T20:09:37.591Z,41.55
2023-05-13T20:12:06.625Z,41.45
2023-05-13T20:14:44.594Z,41.52
2023-05-13T20:17:16.958Z,41.41
2023-05-13T20:19:45.350Z,41.58
2023-05-13T20:22:13.462Z,41.52
2023-05-13T20:24:41.650Z,41.51
2023-05-13T20:27:09.903Z,41.60
2023-05-13T20:29:38.849Z,41.67
2023-05-13T20:32:08.048Z,41.50
2023-05-13T20:34:37.837Z,41.68
2023-05-13T20:37:06.906Z,41.59
2023-05-13T20:39:35.071Z,41.68
2023-05-13T20:42:03.250Z,41.68
2023-05-13T20:44:31.453Z,41.65
2023-05-13T20:46:59.924Z,41.66
2023-05-13T20:49:28.074Z,41.38
2023-05-13T20:52:03.545Z,41.69
2023-05-13T20:54:31.717Z,41.65
2023-05-13T20:57:01.204Z,41.60
2023-05-13T20:59:30.394Z,41.39
2023-05-13T21:01:59.065Z,41.52
2023-05-13T21:04:27.260Z,41.51
2023-05-13T21:06:55.360Z,41.61
2023-05-13T21:09:24.793Z,41.59
2023-05-13T21:11:52.780Z,41.64
2023-05-13T21:14:20.935Z,41.60
2023-05-13T21:16:48.956Z,41.56
2023-05-13T21:19:23.007Z,41.51
2023-05-13T21:21:51.443Z,41.66
2023-05-13T21:24:20.512Z,41.56
2023-05-13T21:26:50.137Z,41.45
2023-05-13T21:29:19.023Z,41.48
2023-05-13T21:31:47.996Z,41.47
2023-05-13T21:34:16.205Z,41.60
2023-05-13T21:36:44.543Z,41.50
2023-05-13T21:39:12.572Z,41.34
2023-05-13T21:41:41.354Z,41.33
2023-05-13T21:44:10.969Z,41.44
2023-05-13T21:46:39.362Z,41.38
2023-05-13T21:49:07.625Z,41.47
2023-05-13T21:51:35.779Z,41.42
2023-05-13T21:54:03.817Z,41.50
2023-05-13T21:56:31.916Z,41.56
2023-05-13T21:58:59.998Z,41.39
2023-05-13T22:01:29.898Z,41.39
2023-05-13T22:03:58.082Z,41.55
2023-05-13T22:06:27.170Z,41.43
2023-05-13T22:08:55.365Z,41.51
2023-05-13T22:11:23.448Z,41.45
2023-05-13T22:13:51.906Z,41.45
2023-05-13T22:16:20.073Z,41.47
2023-05-13T22:18:49.991Z,41.51
2023-05-13T22:21:18.202Z,41.38
2023-05-13T22:23:46.473Z,41.52
2023-05-13T22:26:14.566Z,41.28
2023-05-13T22:28:42.838Z,41.56
2023-05-13T22:31:11.035Z,41.54
2023-05-13T22:33:39.136Z,41.44
2023-05-13T22:36:08.943Z,41.50
2023-05-13T22:38:37.337Z,41.51
2023-05-13T22:41:05.557Z,41.41
2023-05-13T22:43:34.325Z,41.67
2023-05-13T22:46:02.495Z,41.49
2023-05-13T22:48:30.824Z,41.63
2023-05-13T22:50:59.973Z,41.53
2023-05-13T22:53:29.446Z,41.60
2023-05-13T22:55:57.556Z,41.46
2023-05-13T22:58:25.618Z,41.52
2023-05-13T23:00:53.856Z,41.50
2023-05-13T23:03:21.995Z,41.49
2023-05-13T23:05:50.002Z,41.19
2023-05-13T23:08:18.109Z,41.50
2023-05-13T23:10:47.751Z,41.54
2023-05-13T23:13:15.923Z,41.50
2023-05-13T23:15:44.487Z,41.44
2023-05-13T23:18:12.601Z,41.52
2023-05-13T23:20:40.619Z,41.41
2023-05-13T23:23:08.808Z,41.41
2023-05-13T23:25:36.999Z,41.50
2023-05-13T23:28:06.443Z,41.46
2023-05-13T23:30:34.555Z,41.54
2023-05-13T23:33:02.717Z,41.44
2023-05-13T23:35:31.097Z,41.34
2023-05-13T23:37:59.466Z,41.40
2023-05-13T23:40:27.755Z,41.51
2023-05-13T23:42:56.141Z,41.39
2023-05-13T23:45:26.821Z,41.39
2023-05-13T23:47:54.972Z,41.33
2023-05-13T23:50:23.284Z,41.39
2023-05-13T23:52:51.685Z,41.38
2023-05-13T23:55:20.687Z,41.39
2023-05-13T23:57:49.803Z,41.30
